ADDS METAR Data INFO
IDs: Format: Raw Decoded Include TAF

Data at: 0840 UTC 21 Oct 2017

K1M4 210756Z AUTO 00000KT 10SM CLR 11/11 A3019 RMK AO2 SLP237 T01060106
K1M4 210656Z AUTO 12003KT 10SM CLR 12/10 A3019 RMK AO2 SLP239 T01220100
K1M4 210556Z AUTO 00000KT 10SM CLR 11/11 A3019 RMK AO2 SLP240 T01110106 10144 20111 58001
K1M4 210456Z AUTO 13004KT 10SM CLR 14/11 A3019 RMK AO2 SLP239 T01390106 402500056
K1M4 210356Z AUTO 00000KT 10SM CLR 12/11 A3021 RMK AO2 SLP246 T01220111
K1M4 210256Z AUTO 11003KT 10SM CLR 13/12 A3020 RMK AO2 SLP243 T01280117 53001
K1M4 210156Z AUTO 00000KT 10SM CLR 13/13 A3019 RMK AO2 SLP246 T01280128
K1M4 210056Z AUTO 00000KT 10SM CLR 13/13 A3019 RMK AO2 SLP250 T01330133
K1M4 202356Z AUTO 00000KT 10SM CLR 14/13 A3019 RMK AO2 SLP251 T01440133 10250 20144 53001
K1M4 202256Z AUTO 00000KT 10SM CLR 18/14 A3019 RMK AO2 SLP247 T01780144
K1M4 202156Z AUTO 00000KT 10SM CLR 23/12 A3019 RMK AO2 SLP242 T02330122
K1M4 202056Z AUTO 13005KT 10SM CLR 24/09 A3019 RMK AO2 SLP243 T02440094 56021
K1M4 201956Z AUTO 13004KT 10SM CLR 25/08 A3020 RMK AO2 SLP244 T02500083
K1M4 201856Z AUTO 00000KT 9SM CLR 23/11 A3022 RMK AO2 SLP251 T02330111
K1M4 201756Z AUTO VRB04KT 9SM CLR 23/11 A3026 RMK AO2 SLP263 T02330111 10239 20056 58021
K1M4 201656Z AUTO 00000KT 9SM CLR 22/11 A3029 RMK AO2 SLP274 T02220111
K1M4 201556Z AUTO 15005KT 9SM CLR 20/11 A3031 RMK AO2 SLP285 T02000106
K1M4 201456Z AUTO 12003KT 10SM CLR 19/11 A3032 RMK AO2 SLP287 T01890111 53007
K1M4 201356Z AUTO 00000KT 10SM CLR 14/11 A3031 RMK AO2 SLP287 T01440106
K1M4 201256Z AUTO 00000KT 10SM CLR 07/07 A3030 RMK AO2 SLP287 T00720072
K1M4 201156Z AUTO 00000KT 10SM CLR 06/06 A3030 RMK AO2 SLP286 T00610061 10083 20056 53010
K1M4 201056Z AUTO 00000KT 8SM CLR 06/06 A3029 RMK AO2 SLP279 T00610061
K1M4 200956Z AUTO 00000KT 10SM CLR 07/07 A3027 RMK AO2 SLP271 T00670067
K1M4 200856Z AUTO 00000KT 10SM CLR 07/07 A3027 RMK AO2 SLP268 T00670067 53002
K1M4 200756Z AUTO 00000KT 9SM CLR 07/07 A3027 RMK AO2 SLP267 T00720072
K1M4 200656Z AUTO 00000KT 9SM CLR 08/08 A3026 RMK AO2 SLP266 T00780078
K1M4 200556Z AUTO 00000KT 6SM BR CLR 08/08 A3026 RMK AO2 SLP267 T00830083 10144 20083 58002
K1M4 200524Z AUTO 00000KT 2SM BR CLR 09/09 A3026 RMK AO2
K1M4 200513Z AUTO 00000KT 1SM BR CLR 09/09 A3027 RMK AO2
K1M4 200456Z AUTO 00000KT 2 1/2SM BR CLR 09/09 A3027 RMK AO2 SLP270 T00940094 402500056
K1M4 200443Z AUTO 00000KT 2 1/2SM BR CLR 09/09 A3027 RMK AO2 VIS 1 3/4V3
K1M4 200356Z AUTO 00000KT 5SM BR CLR 10/10 A3027 RMK AO2 SLP271 T01000100
K1M4 200256Z AUTO 00000KT 4SM BR CLR 11/11 A3027 RMK AO2 SLP271 T01060106 51004
K1M4 200156Z AUTO 00000KT 10SM CLR 12/12 A3026 RMK AO2 SLP271 T01170117
K1M4 200056Z AUTO 00000KT 10SM CLR 12/12 A3026 RMK AO2 SLP275 T01220117
K1M4 192356Z AUTO 00000KT 10SM CLR 14/13 A3026 RMK AO2 SLP272 T01440128 10250 20144 53003
K1M4 192256Z AUTO 00000KT 10SM CLR 19/13 A3025 RMK AO2 SLP266 T01890133
K1M4 192156Z AUTO VRB03KT 10SM CLR 23/11 A3025 RMK AO2 SLP263 T02280106
K1M4 192056Z AUTO 05005KT 8SM CLR 24/10 A3025 RMK AO2 SLP260 T02440100 56017